Arapahoe, CO

12:23 AM MDT on July 31, 2014 (GMT -0600)
KWS (KCOCHEYE2) Elev 4252 ft | 38.82 °N, 102.33 °W | Change Station

Current weather conditions updated 17 seconds ago

Clear
Clear
61.7 °F
Feels Like 61.7 °F
N
1.0
Wind Variable Wind from WNW
Gusts 2.0 mph

Today is forecast to be Much Warmer than yesterday.

Today
High -- | Low -- °F
--% Chance of Precip.
Yesterday
High -- | Low -- °F
Precip. -- in
5:49 AM 8:01 PM
Waxing Crescent, 16% visible
Pressure 30.18 in
Visibility 10.0 miles
Clouds Clear
Dew Point 55 °F
Humidity 78%
Rainfall 0.00 in
Snow Depth Not available.
UV 0 out of 12
Pollen .80 out of 12
Air Quality Not available.
Flu Activity Not available.
METAR KITR 310453Z AUTO 27004KT 10SM CLR 16/13 A3029 RMK AO2 SLP220 T01560133

More Conditions Fewer Conditions

Pressure 30.18 in
Visibility 10.0 miles
Clouds Clear
Dew Point 55 °F
Humidity 78%
Rainfall 0.00 in
Snow Depth Not available.
UV 0 out of 12
Pollen .80 out of 12
Air Quality Not available.
Flu Activity Not available.
METAR KITR 310453Z AUTO 27004KT 10SM CLR 16/13 A3029 RMK AO2 SLP220 T01560133

More Conditions Fewer Conditions

10-Day Weather Forecast

Almanac

Astronomy

Jul. 31, 2014 Rise Set
Actual Time 5:49 AM MDT 8:01 PM MDT
Civil Twilight 5:19 AM MDT 8:30 PM MDT
Nautical Twilight 4:42 AM MDT 9:07 PM MDT
Astronomical Twilight 4:02 AM MDT 9:46 PM MDT
Moon 10:15 AM MDT 10:18 PM MDT
Length of Visible Light 15h 11m
Length of Day
14h 12m
Tomorrow will be 1m 54s shorter.
Waxing Crescent, 16% of the Moon is Illuminated
Today
Waxing Crescent
Aug 3
First Quarter
Aug 10
Full
Aug 17
Last Quarter
Aug 25
New

Today's Extremes

State Highs State Lows

Community

WunderPhotos

Upload Photos

1,739,251 photos uploaded!

Nearby

Snow Depth

Station Depth Elevation
Echo Lake 0 in 10600 ft
Medano Pass 0 in 9620 ft
Apishapa 1 in 10000 ft
South Colony 0 in 10800 ft
Ute Creek 0 in 10650 ft

Earthquake Activity

City Distance Mag. Time & Date
No recent earthquake activity has been reported nearby.
Minimum magnitude displayed is 2.5.

Coastal Water Temperatures

Place Temperature
No Stations Reporting

Nearby Weather Stations

Station Location Temp. Dew Point Humidity Wind Precip. Elev Updated Type
MesoWest ARAPHO , Arapahoe, CO 66 °F - - North  at  - 0.00 in / hr 3991 ft 8:25 PM MDT MADIS
KWS, Cheyenne Wells, CO 61.7 °F 55 °F 78% WNW  at  1.0 mph 0.00 in / hr 4252 ft 12:23 AM MDT Normal
DW8525, Cheyenne Wells, CO 61.7 °F 51 °F 67% WNW  at  1.8 mph 0.00 in / hr 4295 ft 12:23 AM MDT Rapid Fire
MesoWest FRSTVW , Cheyenne Wells, CO 59 °F - - North  at  - 0.00 in / hr 4457 ft 11:15 PM MDT MADIS
4M Feeders, Stratton, CO 58.7 °F 56 °F 90% North  at  0.0 mph 0.00 in / hr 4531 ft 12:22 AM MDT Normal

Show More Stations Show Fewer Stations